ADDS METAR Data INFO
IDs: Format: Raw Decoded Include TAF

Data at: 0903 UTC 20 Oct 2017

KLJF 200853Z AUTO 00000KT 10SM CLR 13/11 A2986 RMK AO2 TSNO
KLJF 200833Z AUTO 00000KT 10SM CLR 13/11 A2986 RMK AO2 TSNO
KLJF 200812Z AUTO 00000KT 10SM CLR 14/11 A2986 RMK AO2 TSNO
KLJF 200753Z AUTO 00000KT 10SM CLR 14/11 A2987 RMK AO2 TSNO
KLJF 200733Z AUTO 00000KT 10SM CLR 14/11 A2987 RMK AO2 TSNO
KLJF 200713Z AUTO 00000KT 10SM CLR 14/11 A2987 RMK AO2 TSNO
KLJF 200653Z AUTO 00000KT 10SM CLR 14/11 A2987 RMK AO2 TSNO
KLJF 200633Z AUTO 16003KT 10SM CLR 14/11 A2988 RMK AO2 TSNO
KLJF 200613Z AUTO 15003KT 10SM CLR 14/11 A2988 RMK AO2 TSNO
KLJF 200553Z AUTO 16003KT 10SM CLR 14/11 A2988 RMK AO2 TSNO
KLJF 200533Z AUTO 16003KT 10SM CLR 15/11 A2988 RMK AO2 TSNO
KLJF 200513Z AUTO 16003KT 10SM CLR 16/10 A2988 RMK AO2 TSNO
KLJF 200453Z AUTO 17003KT 10SM CLR 15/09 A2988 RMK AO2 TSNO
KLJF 200433Z AUTO 15003KT 10SM CLR 15/09 A2988 RMK AO2 TSNO
KLJF 200413Z AUTO 16003KT 10SM CLR 14/08 A2989 RMK AO2 TSNO
KLJF 200353Z AUTO 16003KT 10SM CLR 15/08 A2989 RMK AO2 TSNO
KLJF 200333Z AUTO 16003KT 10SM CLR 15/08 A2989 RMK AO2 TSNO
KLJF 200313Z AUTO 15005KT 10SM CLR 16/08 A2989 RMK AO2 TSNO
KLJF 200253Z AUTO 15005KT 10SM CLR 16/08 A2989 RMK AO2 TSNO
KLJF 200233Z AUTO 15004KT 10SM CLR 16/08 A2989 RMK AO2 TSNO
KLJF 200213Z AUTO 15004KT 10SM CLR 16/07 A2989 RMK AO2 TSNO
KLJF 200153Z AUTO 15004KT 10SM CLR 17/07 A2990 RMK AO2 TSNO
KLJF 200133Z AUTO 00000KT 10SM CLR 17/07 A2990 RMK AO2 TSNO
KLJF 200113Z AUTO 16003KT 10SM CLR 17/07 A2990 RMK AO2 TSNO
KLJF 200053Z AUTO 15004KT 10SM CLR 18/07 A2990 RMK AO2 TSNO
KLJF 200033Z AUTO 15004KT 10SM CLR 18/06 A2990 RMK AO2 TSNO
KLJF 200013Z AUTO 15004KT 10SM CLR 18/06 A2990 RMK AO2 TSNO
KLJF 192352Z AUTO 16004KT 10SM CLR 19/06 A2990 RMK AO2 TSNO
KLJF 192333Z AUTO 15005KT 10SM CLR 19/06 A2990 RMK AO2 TSNO
KLJF 192313Z AUTO 15006KT 10SM CLR 20/05 A2990 RMK AO2 TSNO
KLJF 192253Z AUTO 15005KT 10SM CLR 21/04 A2990 RMK AO2 TSNO
KLJF 192233Z AUTO 15005KT 10SM CLR 21/04 A2991 RMK AO2 TSNO
KLJF 192212Z AUTO 16004KT 10SM CLR 22/04 A2992 RMK AO2 TSNO
KLJF 192153Z AUTO 15004KT 10SM CLR 22/04 A2992 RMK AO2 TSNO
KLJF 192133Z AUTO 13005KT 10SM CLR 22/04 A2992 RMK AO2 TSNO
KLJF 192112Z AUTO 16005KT 10SM CLR 22/04 A2993 RMK AO2 TSNO
KLJF 192053Z AUTO 17004KT 10SM CLR 22/04 A2993 RMK AO2 TSNO
KLJF 192033Z AUTO 15006KT 10SM CLR 23/04 A2993 RMK AO2 TSNO
KLJF 192012Z AUTO 18006KT 10SM CLR 23/03 A2994 RMK AO2 TSNO
KLJF 191953Z AUTO 17006KT 10SM CLR 23/03 A2994 RMK AO2 TSNO
KLJF 191933Z AUTO 16007KT 104V214 10SM CLR 22/02 A2995 RMK AO2 TSNO
KLJF 191913Z AUTO 16007KT 124V204 10SM CLR 22/02 A2997 RMK AO2 TSNO
KLJF 191853Z AUTO 16005KT 10SM CLR 22/02 A2998 RMK AO2 TSNO
KLJF 191833Z AUTO 17006KT 10SM CLR 21/02 A2999 RMK AO2 TSNO
KLJF 191758Z AUTO 15004KT 10SM CLR 21/02 A3001 RMK AO2 TSNO
KLJF 191733Z AUTO 17005KT 10SM CLR 20/02 A3001 RMK AO2 TSNO
KLJF 191713Z AUTO 17006KT 10SM CLR 19/01 A3002 RMK AO2 TSNO
KLJF 191653Z AUTO 16005KT 10SM CLR 19/01 A3002 RMK AO2 TSNO
KLJF 191633Z AUTO 17005KT 3SM HZ CLR 18/01 A3002 RMK AO2 TSNO
KLJF 191613Z AUTO 15005KT 10SM CLR 17/01 A3002 RMK AO2 TSNO
KLJF 191553Z AUTO 15006KT 10SM CLR 16/00 A3003 RMK AO2 TSNO
KLJF 191533Z AUTO 16004KT 10SM CLR 14/02 A3003 RMK AO2 TSNO
KLJF 191513Z AUTO 15005KT 10SM CLR 13/01 A3004 RMK AO2 TSNO
KLJF 191453Z AUTO 00000KT 10SM CLR 12/01 A3004 RMK AO2 TSNO
KLJF 191432Z AUTO 17003KT 10SM CLR 11/01 A3004 RMK AO2 TSNO
KLJF 191413Z AUTO 16003KT 10SM CLR 10/01 A3005 RMK AO2 TSNO
KLJF 191353Z AUTO 00000KT 10SM CLR 08/02 A3005 RMK AO2 TSNO
KLJF 191333Z AUTO 00000KT 10SM CLR 08/02 A3004 RMK AO2 TSNO
KLJF 191313Z AUTO 00000KT 10SM CLR 07/02 A3004 RMK AO2 TSNO
KLJF 191253Z AUTO 00000KT 10SM CLR 06/02 A3003 RMK AO2 TSNO
KLJF 191232Z AUTO 00000KT 10SM CLR 04/03 A3003 RMK AO2 TSNO
KLJF 191213Z AUTO 00000KT 10SM CLR 04/02 A3003 RMK AO2 TSNO
KLJF 191152Z AUTO 00000KT 10SM CLR 04/02 A3003 RMK AO2 TSNO
KLJF 191133Z AUTO 00000KT 10SM CLR 04/02 A3003 RMK AO2 TSNO
KLJF 191113Z AUTO 00000KT 10SM CLR 04/01 A3003 RMK AO2 TSNO
KLJF 191053Z AUTO 00000KT 10SM CLR 04/01 A3002 RMK AO2 TSNO
KLJF 191033Z AUTO 00000KT 10SM CLR 06/01 A3003 RMK AO2 TSNO
KLJF 191013Z AUTO 00000KT 10SM CLR 06/01 A3002 RMK AO2 TSNO
KLJF 190953Z AUTO 00000KT 10SM CLR 06/01 A3003 RMK AO2 TSNO
KLJF 190933Z AUTO 00000KT 10SM CLR 06/01 A3003 RMK AO2 TSNO
KLJF 190913Z AUTO 00000KT 10SM CLR 07/01 A3003 RMK AO2 TSNO
KLJF 190853Z AUTO 00000KT 10SM CLR 07/00 A3003 RMK AO2 TSNO
KLJF 190833Z AUTO 00000KT 10SM CLR 07/01 A3003 RMK AO2 TSNO
KLJF 190812Z AUTO 00000KT 10SM CLR 08/00 A3003 RMK AO2 TSNO
KLJF 190753Z AUTO 00000KT 10SM CLR 08/00 A3003 RMK AO2 TSNO
KLJF 190733Z AUTO 00000KT 10SM CLR 08/00 A3003 RMK AO2 TSNO
KLJF 190712Z AUTO 00000KT 10SM CLR 08/00 A3003 RMK AO2 TSNO
KLJF 190653Z AUTO 00000KT 10SM CLR 08/00 A3003 RMK AO2 TSNO
KLJF 190633Z AUTO 00000KT 10SM CLR 08/01 A3003 RMK AO2 TSNO
KLJF 190612Z AUTO 00000KT 10SM CLR 08/01 A3003 RMK AO2 TSNO
KLJF 190553Z AUTO 24003KT 10SM CLR 09/01 A3003 RMK AO2 TSNO
KLJF 190533Z AUTO 24005KT 10SM CLR 10/00 A3002 RMK AO2 TSNO
KLJF 190512Z AUTO 25005KT 10SM CLR 11/M01 A3002 RMK AO2 TSNO
KLJF 190453Z AUTO 25003KT 10SM CLR 10/M01 A3002 RMK AO2 TSNO
KLJF 190433Z AUTO 00000KT 10SM CLR 09/00 A3003 RMK AO2 TSNO
KLJF 190412Z AUTO 24003KT 10SM CLR 10/00 A3002 RMK AO2 TSNO
KLJF 190353Z AUTO 25004KT 10SM CLR 11/M01 A3002 RMK AO2 TSNO
KLJF 190333Z AUTO 26005KT 10SM CLR 11/M01 A3001 RMK AO2 TSNO
KLJF 190312Z AUTO 26005KT 10SM CLR 11/M01 A3001 RMK AO2 TSNO
KLJF 190253Z AUTO 25004KT 10SM CLR 11/M01 A3002 RMK AO2 TSNO
KLJF 190233Z AUTO 26005KT 10SM CLR 11/M01 A3002 RMK AO2 TSNO
KLJF 190212Z AUTO 26005KT 10SM CLR 12/M01 A3001 RMK AO2 TSNO
KLJF 190153Z AUTO 27006KT 10SM CLR 12/M01 A3001 RMK AO2 TSNO
KLJF 190132Z AUTO 26005KT 10SM CLR 12/M01 A3000 RMK AO2 TSNO
KLJF 190113Z AUTO 27005KT 10SM CLR 12/M01 A3001 RMK AO2 TSNO
KLJF 190053Z AUTO 27005KT 10SM CLR 12/M01 A3000 RMK AO2 TSNO
KLJF 190033Z AUTO 27004KT 10SM CLR 12/M01 A3000 RMK AO2 TSNO
KLJF 190013Z AUTO 29007KT 10SM CLR 13/M01 A2999 RMK AO2 TSNO
KLJF 182353Z AUTO 28004KT 10SM CLR 13/M01 A2998 RMK AO2 TSNO
KLJF 182333Z AUTO 29007KT 10SM CLR 14/M03 A2996 RMK AO2 TSNO
KLJF 182313Z AUTO 29007KT 10SM CLR 14/M02 A2996 RMK AO2 TSNO
KLJF 182253Z AUTO 27007KT 10SM CLR 16/M02 A2995 RMK AO2 TSNO
KLJF 182233Z AUTO 29008KT 10SM CLR 16/M03 A2993 RMK AO2 TSNO
KLJF 182213Z AUTO 28009KT 10SM CLR 16/M04 A2993 RMK AO2 TSNO
KLJF 182153Z AUTO 29011G20KT 10SM CLR 17/M03 A2992 RMK AO2 TSNO
KLJF 182133Z AUTO 30008KT 10SM CLR 18/M03 A2992 RMK AO2 TSNO
KLJF 182113Z AUTO 30012G16KT 10SM CLR 19/M03 A2991 RMK AO2 TSNO